Time;durP1;ratioP1;P1;durP2;ratioP2;P2;SDS_P1;SDS_P2;PMS_P1;PMS_P2;Temp;Humidity;BMP_temperature;BMP_pressure;BME280_temperature;BME280_humidity;BME280_pressure;Samples;Min_cycle;Max_cycle;Signal;HPM_P1;HPM_P2
2022/01/06 00:01:18;;;;;;;3.43;1.50;;;1.60;99.90;;;;;;5027876;28;20558;-76
2022/01/06 00:03:52;;;;;;;5.40;1.40;;;1.50;99.90;;;;;;5008741;28;20261;-77
2022/01/06 00:06:18;;;;;;;4.47;1.30;;;1.40;99.90;;;;;;5020003;28;20174;-76
2022/01/06 00:08:44;;;;;;;7.63;1.83;;;1.40;99.90;;;;;;5013661;28;20185;-76
2022/01/06 00:11:19;;;;;;;4.93;1.97;;;1.40;99.90;;;;;;5013264;28;20213;-76
2022/01/06 00:24:54;;;;;;;4.97;1.40;;;1.20;99.90;;;;;;5025897;28;20192;-77
2022/01/06 00:27:19;;;;;;;5.20;1.57;;;1.10;99.90;;;;;;5003920;28;20225;-77
2022/01/06 00:30:07;;;;;;;4.13;1.40;;;1.00;99.90;;;;;;5012083;28;20194;-77
2022/01/06 00:32:33;;;;;;;2.83;1.40;;;1.00;99.90;;;;;;5032252;28;20201;-75
2022/01/06 00:34:59;;;;;;;4.53;1.50;;;0.90;99.90;;;;;;5026356;28;20178;-76
2022/01/06 00:37:24;;;;;;;4.07;1.20;;;0.90;99.90;;;;;;5041243;28;20186;-75
2022/01/06 00:39:50;;;;;;;4.53;1.30;;;1.00;99.90;;;;;;5019648;28;20281;-76
2022/01/06 00:42:17;;;;;;;4.77;1.70;;;0.90;99.90;;;;;;5036236;28;20178;-76
2022/01/06 00:44:43;;;;;;;6.37;1.63;;;0.90;99.90;;;;;;5031851;28;20187;-75
2022/01/06 00:47:09;;;;;;;4.40;1.33;;;0.90;99.90;;;;;;5036394;28;20166;-77
2022/01/06 00:49:35;;;;;;;7.13;2.23;;;0.90;99.90;;;;;;5043694;28;20246;-76
2022/01/06 00:52:00;;;;;;;3.47;1.20;;;1.00;99.90;;;;;;5028322;28;20281;-76
2022/01/06 00:54:26;;;;;;;3.27;1.47;;;1.00;99.90;;;;;;5021293;28;20185;-76
2022/01/06 00:56:52;;;;;;;8.43;1.70;;;0.90;99.90;;;;;;5034871;28;20238;-76
2022/01/06 00:59:17;;;;;;;4.20;1.53;;;0.90;99.90;;;;;;5027801;28;20182;-76
2022/01/06 01:01:43;;;;;;;6.63;1.63;;;0.90;99.90;;;;;;5034345;28;20225;-77
2022/01/06 01:04:10;;;;;;;2.67;1.20;;;0.90;99.90;;;;;;5031699;28;20245;-76
2022/01/06 01:06:36;;;;;;;8.47;1.67;;;0.90;99.90;;;;;;5017686;28;20183;-77
2022/01/06 01:09:01;;;;;;;6.70;1.40;;;0.80;99.90;;;;;;5024820;28;20232;-76
2022/01/06 01:11:27;;;;;;;5.33;1.53;;;0.90;99.90;;;;;;5027207;28;20210;-76
2022/01/06 01:13:56;;;;;;;5.13;1.20;;;0.80;99.90;;;;;;5036122;28;20173;-76
2022/01/06 01:16:29;;;;;;;6.30;1.23;;;0.80;99.90;;;;;;5042133;28;20202;-76
2022/01/06 01:18:59;;;;;;;5.33;1.97;;;0.80;99.90;;;;;;5050549;28;20181;-76
2022/01/06 01:21:26;;;;;;;4.60;1.57;;;0.70;99.90;;;;;;5027839;28;20293;-76
2022/01/06 01:23:59;;;;;;;6.07;1.47;;;0.70;99.90;;;;;;5038848;28;20626;-76
2022/01/06 01:26:26;;;;;;;5.03;1.50;;;0.70;99.90;;;;;;5023375;28;20197;-76
2022/01/06 01:28:52;;;;;;;4.00;1.20;;;0.70;99.90;;;;;;5027836;28;20214;-78
2022/01/06 01:31:25;;;;;;;9.20;1.63;;;0.70;99.90;;;;;;5037913;28;20668;-76
2022/01/06 01:33:56;;;;;;;4.07;1.20;;;0.70;99.90;;;;;;5032045;28;20181;-77
2022/01/06 01:36:22;;;;;;;3.63;1.43;;;0.70;99.90;;;;;;5030439;28;20268;-77
2022/01/06 01:38:48;;;;;;;3.13;1.23;;;0.70;99.90;;;;;;5017636;28;20190;-77
2022/01/06 01:41:14;;;;;;;12.90;1.50;;;0.60;99.90;;;;;;5028112;28;20209;-77
2022/01/06 01:43:48;;;;;;;3.73;1.43;;;0.70;99.90;;;;;;5026509;28;20182;-77
2022/01/06 01:46:29;;;;;;;6.93;1.33;;;0.70;99.90;;;;;;5012587;28;20665;-76
2022/01/06 01:51:41;;;;;;;5.50;1.53;;;0.70;99.90;;;;;;5031785;28;20593;-76
2022/01/06 01:54:07;;;;;;;5.57;1.23;;;0.70;99.90;;;;;;5027423;28;20559;-77
2022/01/06 01:56:33;;;;;;;3.53;1.30;;;0.70;99.90;;;;;;5027917;28;20667;-77
2022/01/06 01:59:04;;;;;;;6.00;1.10;;;0.70;99.90;;;;;;5047291;28;20181;-76
2022/01/06 02:01:31;;;;;;;5.47;1.77;;;0.70;99.90;;;;;;5028481;28;20201;-76
2022/01/06 02:03:57;;;;;;;7.53;1.50;;;0.70;99.90;;;;;;5017956;28;20347;-77
2022/01/06 02:06:23;;;;;;;3.53;1.10;;;0.70;99.90;;;;;;5026150;28;20525;-77
2022/01/06 02:08:51;;;;;;;5.17;1.70;;;0.70;99.90;;;;;;5015475;28;20707;-77
2022/01/06 02:11:23;;;;;;;7.07;1.47;;;0.70;99.90;;;;;;5036001;28;20263;-77
2022/01/06 02:13:53;;;;;;;3.33;1.00;;;0.70;99.90;;;;;;5015105;28;20178;-77
2022/01/06 02:16:24;;;;;;;4.17;1.40;;;0.80;99.90;;;;;;5033856;28;20269;-77
2022/01/06 02:18:51;;;;;;;5.27;1.03;;;0.80;99.90;;;;;;5031372;28;21407;-76
2022/01/06 02:21:17;;;;;;;5.80;1.50;;;0.90;99.90;;;;;;5008908;28;20198;-76
2022/01/06 02:23:43;;;;;;;4.03;1.30;;;0.90;99.90;;;;;;5018163;28;20197;-76
2022/01/06 02:26:14;;;;;;;4.50;1.33;;;0.80;99.90;;;;;;5023711;28;20183;-76
2022/01/06 02:28:40;;;;;;;5.03;1.23;;;0.80;99.90;;;;;;5026762;28;20186;-76
2022/01/06 02:31:07;;;;;;;8.70;1.43;;;0.80;99.90;;;;;;5002767;28;20233;-76
2022/01/06 02:34:27;;;;;;;4.97;1.30;;;0.70;99.90;;;;;;5027857;28;20189;-76
2022/01/06 02:36:53;;;;;;;5.80;1.27;;;0.70;99.90;;;;;;5006713;28;20178;-76
2022/01/06 02:39:19;;;;;;;3.87;1.17;;;0.70;99.90;;;;;;5033048;28;20173;-76
2022/01/06 02:41:44;;;;;;;2.60;0.90;;;0.70;99.90;;;;;;5027382;28;20221;-77
2022/01/06 02:44:11;;;;;;;4.00;1.50;;;0.70;99.90;;;;;;5028367;28;20258;-76
2022/01/06 02:46:39;;;;;;;3.07;1.00;;;0.70;99.90;;;;;;5021951;28;20178;-76
2022/01/06 02:49:05;;;;;;;4.60;1.20;;;0.70;99.90;;;;;;5010791;28;20658;-76
2022/01/06 02:51:31;;;;;;;3.17;1.17;;;0.70;99.90;;;;;;5020263;28;20213;-77
2022/01/06 02:53:57;;;;;;;2.73;1.27;;;0.70;99.90;;;;;;5017730;28;20178;-77
2022/01/06 02:56:23;;;;;;;5.97;1.17;;;0.70;99.90;;;;;;5024302;28;20205;-78
2022/01/06 02:58:49;;;;;;;6.23;1.70;;;0.70;99.90;;;;;;5021430;28;20555;-77
2022/01/06 03:01:14;;;;;;;3.10;1.20;;;0.70;99.90;;;;;;5028073;28;20193;-77
2022/01/06 03:03:41;;;;;;;3.80;1.00;;;0.70;99.90;;;;;;5030740;28;20251;-77
2022/01/06 03:06:07;;;;;;;6.03;1.07;;;0.70;99.90;;;;;;5021718;28;20188;-77
2022/01/06 03:08:34;;;;;;;6.30;1.23;;;0.60;99.90;;;;;;5031532;28;20206;-77
2022/01/06 03:10:59;;;;;;;6.03;1.10;;;0.70;99.90;;;;;;5021222;28;20217;-76
2022/01/06 03:13:32;;;;;;;4.77;1.47;;;0.70;99.90;;;;;;5036257;28;20174;-77
2022/01/06 03:15:59;;;;;;;6.40;1.33;;;0.60;99.90;;;;;;5033214;28;20178;-76
2022/01/06 03:18:25;;;;;;;5.10;1.00;;;0.60;99.90;;;;;;5018081;28;20317;-77
2022/01/06 03:20:50;;;;;;;6.07;1.40;;;0.60;99.90;;;;;;5034123;28;20232;-78
2022/01/06 03:23:16;;;;;;;4.73;1.30;;;0.60;99.90;;;;;;5022316;28;20158;-78
2022/01/06 03:25:42;;;;;;;3.90;1.03;;;0.70;99.90;;;;;;5032667;28;20174;-77
2022/01/06 03:28:07;;;;;;;3.90;1.40;;;0.70;99.90;;;;;;5054245;28;20182;-78
2022/01/06 03:30:33;;;;;;;3.77;1.30;;;0.70;99.90;;;;;;5035784;28;20214;-78
2022/01/06 03:32:59;;;;;;;3.20;1.30;;;0.90;99.90;;;;;;5044970;28;20212;-78
2022/01/06 03:35:25;;;;;;;7.30;1.83;;;1.10;99.90;;;;;;5038960;28;20178;-77
2022/01/06 03:37:51;;;;;;;3.90;1.90;;;1.20;99.90;;;;;;5048270;28;20190;-77
2022/01/06 03:40:17;;;;;;;4.00;1.40;;;1.30;99.90;;;;;;5042489;28;20213;-77
2022/01/06 03:42:43;;;;;;;4.17;1.50;;;1.40;99.90;;;;;;5022551;28;20189;-78
2022/01/06 03:45:14;;;;;;;6.27;1.50;;;1.50;99.90;;;;;;5031797;28;20182;-77
2022/01/06 03:47:40;;;;;;;8.60;2.00;;;1.60;99.90;;;;;;5016499;28;20181;-78
2022/01/06 03:50:07;;;;;;;5.47;1.43;;;1.60;99.90;;;;;;5012723;28;20251;-77
2022/01/06 03:52:33;;;;;;;5.33;1.70;;;1.70;99.90;;;;;;5013190;28;20198;-77
2022/01/06 03:55:09;;;;;;;3.37;1.43;;;1.80;99.90;;;;;;5013921;28;20235;-77
2022/01/06 03:57:34;;;;;;;6.50;1.30;;;2.00;99.90;;;;;;5018067;28;20641;-78
2022/01/06 04:00:10;;;;;;;4.87;1.23;;;1.80;99.90;;;;;;5012235;28;20321;-78
2022/01/06 04:02:39;;;;;;;2.60;1.30;;;1.60;99.90;;;;;;5044904;28;20182;-78
2022/01/06 04:05:18;;;;;;;7.13;1.30;;;1.40;99.90;;;;;;5019142;28;20188;-78
2022/01/06 04:07:45;;;;;;;4.00;1.60;;;1.20;99.90;;;;;;5012713;28;20182;-77
2022/01/06 04:10:13;;;;;;;2.97;1.20;;;1.30;99.90;;;;;;5012928;28;20195;-77
2022/01/06 04:12:39;;;;;;;5.57;1.43;;;1.60;99.90;;;;;;5014822;28;20267;-78
2022/01/06 04:15:12;;;;;;;3.50;1.50;;;1.80;99.90;;;;;;5025516;28;20646;-78
2022/01/06 04:17:43;;;;;;;3.73;1.37;;;1.90;99.90;;;;;;5019009;28;20213;-77
2022/01/06 04:20:11;;;;;;;2.63;1.17;;;2.00;99.90;;;;;;5017466;28;20201;-77
2022/01/06 04:22:37;;;;;;;3.87;1.40;;;2.10;99.90;;;;;;5031238;28;20174;-77
2022/01/06 04:25:04;;;;;;;3.97;1.73;;;2.20;99.90;;;;;;5027797;28;20519;-77
2022/01/06 04:27:29;;;;;;;3.77;1.30;;;2.00;99.90;;;;;;5024611;28;20178;-77
2022/01/06 04:29:56;;;;;;;7.57;1.60;;;1.70;99.90;;;;;;5025549;28;20205;-77
2022/01/06 04:32:22;;;;;;;7.70;1.77;;;1.60;99.90;;;;;;5030775;28;20569;-77
2022/01/06 04:34:47;;;;;;;4.80;1.53;;;1.60;99.90;;;;;;5024888;28;20504;-77
2022/01/06 04:37:13;;;;;;;6.00;1.60;;;1.40;99.90;;;;;;5021159;28;20174;-77
2022/01/06 04:39:39;;;;;;;5.13;1.53;;;1.20;99.90;;;;;;5015471;28;20182;-78
2022/01/06 04:42:04;;;;;;;5.60;1.60;;;1.30;99.90;;;;;;5016753;28;20182;-77
2022/01/06 04:44:37;;;;;;;3.63;1.33;;;1.60;99.90;;;;;;5024787;28;20193;-77
2022/01/06 04:47:03;;;;;;;7.20;1.57;;;1.80;99.90;;;;;;5007750;28;20187;-77
2022/01/06 04:49:28;;;;;;;7.30;1.57;;;1.80;99.90;;;;;;5019380;28;20213;-77
2022/01/06 04:51:54;;;;;;;8.57;1.80;;;1.70;99.90;;;;;;5018012;28;20207;-76
2022/01/06 04:54:23;;;;;;;4.40;1.50;;;1.60;99.90;;;;;;5019645;28;20179;-76
2022/01/06 04:56:51;;;;;;;4.83;1.30;;;1.60;99.90;;;;;;5022825;28;20186;-76
2022/01/06 04:59:17;;;;;;;4.47;1.30;;;1.70;99.90;;;;;;5036389;28;20185;-77
2022/01/06 05:01:42;;;;;;;4.83;1.50;;;1.80;99.90;;;;;;5037290;28;20201;-75
2022/01/06 05:04:08;;;;;;;5.17;1.47;;;1.80;99.90;;;;;;5019923;28;20181;-76
2022/01/06 05:06:34;;;;;;;4.10;1.07;;;1.80;99.90;;;;;;5023241;28;20206;-76
2022/01/06 05:08:59;;;;;;;7.37;1.53;;;1.80;99.90;;;;;;5030429;28;20175;-77
2022/01/06 05:11:25;;;;;;;4.60;1.40;;;1.80;99.90;;;;;;5030948;28;20266;-77
2022/01/06 05:13:51;;;;;;;6.80;1.50;;;1.80;99.90;;;;;;5029260;28;20232;-77
2022/01/06 05:16:16;;;;;;;4.80;1.17;;;1.80;99.90;;;;;;5023003;28;20171;-77
2022/01/06 05:18:45;;;;;;;5.80;1.70;;;1.90;99.90;;;;;;5020327;28;20170;-77
2022/01/06 05:21:11;;;;;;;4.67;2.10;;;1.80;99.90;;;;;;5030707;28;20206;-77
2022/01/06 05:23:38;;;;;;;6.20;2.70;;;1.70;99.90;;;;;;5024981;28;20178;-77
2022/01/06 05:26:05;;;;;;;10.03;3.50;;;1.70;99.90;;;;;;5016714;28;20538;-77
2022/01/06 05:28:31;;;;;;;9.63;2.23;;;1.80;99.90;;;;;;5009617;28;20182;-77
2022/01/06 05:30:56;;;;;;;5.90;1.90;;;1.70;99.90;;;;;;5031395;28;20272;-77
2022/01/06 05:33:22;;;;;;;6.80;2.10;;;1.70;99.90;;;;;;5014232;28;20170;-77
2022/01/06 05:35:48;;;;;;;10.43;2.10;;;1.60;99.90;;;;;;5020540;28;20217;-77
2022/01/06 05:38:21;;;;;;;7.67;2.40;;;1.60;99.90;;;;;;5016155;28;20178;-78
2022/01/06 05:40:48;;;;;;;7.17;2.30;;;1.60;99.90;;;;;;5017054;28;20206;-78
2022/01/06 05:43:20;;;;;;;6.27;2.50;;;1.60;99.90;;;;;;5021700;28;20185;-77
2022/01/06 05:45:46;;;;;;;7.03;2.13;;;1.60;99.90;;;;;;5001502;28;20553;-78
2022/01/06 05:48:12;;;;;;;7.17;2.30;;;1.50;99.90;;;;;;5027305;28;20269;-78
2022/01/06 05:50:37;;;;;;;9.20;2.23;;;1.30;99.90;;;;;;5022984;28;20285;-78
2022/01/06 05:53:03;;;;;;;7.53;2.30;;;1.20;99.90;;;;;;5024182;28;20247;-78
2022/01/06 05:55:28;;;;;;;5.23;2.17;;;1.20;99.90;;;;;;5017033;28;20660;-78
2022/01/06 05:57:54;;;;;;;8.37;2.10;;;1.10;99.90;;;;;;5013324;28;20256;-77
2022/01/06 06:00:20;;;;;;;8.50;2.10;;;1.20;99.90;;;;;;5021369;28;20190;-78
2022/01/06 06:02:45;;;;;;;5.40;2.07;;;1.20;99.90;;;;;;5020873;28;20790;-77
2022/01/06 06:05:11;;;;;;;9.43;2.13;;;1.10;99.90;;;;;;5031952;28;20182;-78
2022/01/06 06:07:37;;;;;;;7.13;2.13;;;1.10;99.90;;;;;;5012923;28;20216;-78
2022/01/06 06:10:03;;;;;;;6.73;2.00;;;1.10;99.90;;;;;;5017216;28;20198;-77
2022/01/06 06:12:29;;;;;;;7.43;2.30;;;1.20;99.90;;;;;;5017925;28;20264;-77
2022/01/06 06:14:54;;;;;;;9.40;3.60;;;1.20;99.90;;;;;;5026990;28;20174;-77
2022/01/06 06:17:20;;;;;;;11.67;3.97;;;1.10;99.90;;;;;;5012691;28;20227;-76
2022/01/06 06:20:04;;;;;;;9.73;3.53;;;1.10;99.90;;;;;;5015786;28;20257;-76
2022/01/06 06:22:30;;;;;;;10.67;3.00;;;1.10;99.90;;;;;;5034977;28;20260;-76
2022/01/06 06:24:56;;;;;;;7.50;3.33;;;1.30;99.90;;;;;;5017134;28;20182;-76
2022/01/06 06:27:21;;;;;;;7.13;3.80;;;1.40;99.90;;;;;;5014801;28;20274;-76
2022/01/06 06:29:47;;;;;;;6.23;3.37;;;1.60;99.90;;;;;;5006518;28;20206;-77
2022/01/06 06:32:13;;;;;;;10.97;2.87;;;1.90;99.90;;;;;;5012733;28;20195;-77
2022/01/06 06:34:38;;;;;;;6.47;2.93;;;2.00;99.90;;;;;;5021803;28;20328;-77
2022/01/06 06:37:41;;;;;;;9.50;3.07;;;2.10;99.90;;;;;;5020813;28;20173;-76
2022/01/06 06:40:09;;;;;;;6.87;3.33;;;2.20;99.90;;;;;;5010226;28;20197;-77
2022/01/06 06:42:37;;;;;;;6.90;3.00;;;2.20;99.90;;;;;;5006765;28;20266;-77
2022/01/06 06:45:05;;;;;;;6.07;2.67;;;2.10;99.90;;;;;;5031435;28;20280;-77
2022/01/06 06:47:32;;;;;;;6.43;2.80;;;2.00;99.90;;;;;;5016216;28;20240;-77
2022/01/06 06:49:59;;;;;;;7.13;3.27;;;1.90;99.90;;;;;;5010789;28;20198;-77
2022/01/06 06:52:26;;;;;;;7.93;3.17;;;1.80;99.90;;;;;;5031765;28;20297;-77
2022/01/06 06:54:54;;;;;;;9.27;3.03;;;1.80;99.90;;;;;;5015028;28;20178;-78
2022/01/06 06:57:21;;;;;;;10.00;2.90;;;1.80;99.90;;;;;;5015752;28;20288;-77
2022/01/06 06:59:46;;;;;;;8.07;2.80;;;1.90;99.90;;;;;;5031701;28;20202;-77
2022/01/06 07:02:12;;;;;;;8.77;3.17;;;1.90;99.90;;;;;;5014433;28;20285;-78
2022/01/06 07:04:45;;;;;;;10.00;2.70;;;1.90;99.90;;;;;;5013502;28;20596;-78
2022/01/06 07:07:11;;;;;;;9.07;3.00;;;1.80;99.90;;;;;;5023103;28;20174;-77
2022/01/06 07:09:37;;;;;;;7.70;2.50;;;1.80;99.90;;;;;;5029331;28;20175;-77
2022/01/06 07:12:03;;;;;;;6.87;2.80;;;1.70;99.90;;;;;;5012776;28;20197;-77
2022/01/06 07:14:28;;;;;;;4.60;2.50;;;1.70;99.90;;;;;;5017582;28;20182;-77
2022/01/06 07:16:54;;;;;;;14.67;4.77;;;1.70;99.90;;;;;;5017228;28;20269;-78
2022/01/06 07:19:29;;;;;;;7.23;2.93;;;1.70;99.90;;;;;;5024513;28;20178;-77
2022/01/06 07:21:54;;;;;;;4.77;2.70;;;1.70;99.90;;;;;;5009818;28;20189;-76
2022/01/06 07:24:21;;;;;;;6.23;2.80;;;1.80;99.90;;;;;;5027959;28;20178;-77
2022/01/06 07:26:49;;;;;;;7.23;3.20;;;1.80;99.90;;;;;;5019341;28;20272;-77
2022/01/06 07:29:19;;;;;;;7.03;2.50;;;1.70;99.90;;;;;;5019313;28;20182;-77
2022/01/06 07:32:00;;;;;;;9.87;4.70;;;1.80;99.90;;;;;;5003827;28;20244;-77
2022/01/06 07:34:25;;;;;;;4.07;1.90;;;1.80;99.90;;;;;;5015365;28;20223;-77
2022/01/06 07:36:53;;;;;;;8.13;2.20;;;1.60;99.90;;;;;;5013838;28;20166;-77
2022/01/06 07:39:26;;;;;;;6.73;2.13;;;1.50;99.90;;;;;;5025761;28;20174;-77
2022/01/06 07:41:58;;;;;;;5.57;2.40;;;1.40;99.90;;;;;;5008289;28;20179;-77
2022/01/06 07:44:42;;;;;;;5.10;1.93;;;1.50;99.90;;;;;;5021325;28;20170;-77
2022/01/06 07:47:16;;;;;;;4.63;2.53;;;1.30;99.90;;;;;;5031269;28;20253;-78
2022/01/06 07:49:42;;;;;;;8.37;3.10;;;1.20;99.90;;;;;;5029102;28;20185;-78
2022/01/06 07:52:07;;;;;;;4.40;2.80;;;1.10;99.90;;;;;;5017599;28;20608;-78
2022/01/06 07:54:39;;;;;;;4.07;2.50;;;1.10;99.90;;;;;;5011653;28;20232;-77
2022/01/06 07:57:05;;;;;;;4.40;1.90;;;1.00;99.90;;;;;;5027391;28;20190;-77
2022/01/06 07:59:31;;;;;;;10.97;1.97;;;1.00;99.90;;;;;;5004421;28;20190;-78
2022/01/06 08:01:58;;;;;;;3.37;1.90;;;1.00;99.90;;;;;;5015857;28;20586;-78
2022/01/06 08:04:24;;;;;;;5.40;1.60;;;1.00;99.90;;;;;;5007273;28;20209;-78
2022/01/06 08:06:54;;;;;;;4.43;1.30;;;1.10;99.90;;;;;;5031220;28;20197;-78
2022/01/06 08:09:19;;;;;;;3.50;1.40;;;1.00;99.90;;;;;;5031937;28;20258;-77
2022/01/06 08:11:45;;;;;;;7.60;1.43;;;0.90;99.90;;;;;;5016315;28;20256;-78
2022/01/06 08:14:11;;;;;;;3.93;1.27;;;0.90;99.90;;;;;;5014526;28;20313;-77
2022/01/06 08:16:39;;;;;;;6.93;1.43;;;0.80;99.90;;;;;;5013331;28;20653;-77
2022/01/06 08:19:04;;;;;;;3.40;1.30;;;0.90;99.90;;;;;;5031378;28;20174;-78
2022/01/06 08:21:30;;;;;;;4.37;1.57;;;0.90;99.90;;;;;;5022840;28;20206;-77
2022/01/06 08:23:56;;;;;;;5.17;1.50;;;1.00;99.90;;;;;;5013902;28;20170;-78
2022/01/06 08:26:21;;;;;;;4.23;1.50;;;1.00;99.90;;;;;;5019707;28;20177;-78
2022/01/06 08:28:47;;;;;;;5.43;1.40;;;1.00;99.90;;;;;;5011231;28;20162;-78
2022/01/06 08:31:14;;;;;;;7.23;1.63;;;1.00;99.90;;;;;;5014185;28;20217;-78
2022/01/06 08:33:40;;;;;;;5.17;1.60;;;0.90;99.90;;;;;;5018626;28;20189;-77
2022/01/06 08:36:06;;;;;;;4.73;1.13;;;0.90;99.90;;;;;;5017560;28;20166;-80
2022/01/06 08:38:32;;;;;;;4.10;1.30;;;0.90;99.90;;;;;;5017035;28;20205;-78
2022/01/06 08:40:57;;;;;;;5.90;1.67;;;1.00;99.90;;;;;;5029950;28;20201;-77
2022/01/06 08:43:27;;;;;;;3.60;1.40;;;0.90;99.90;;;;;;5013331;28;20179;-78
2022/01/06 08:45:58;;;;;;;6.00;1.53;;;0.90;99.90;;;;;;5019260;28;20177;-78
2022/01/06 08:48:24;;;;;;;4.33;1.77;;;1.00;99.90;;;;;;5024307;28;20186;-78
2022/01/06 08:50:50;;;;;;;7.13;1.90;;;1.00;99.90;;;;;;5030205;28;20293;-77
2022/01/06 08:53:16;;;;;;;6.87;1.73;;;1.00;99.90;;;;;;5004420;28;20242;-77
2022/01/06 08:55:46;;;;;;;3.90;1.60;;;1.10;99.90;;;;;;5014404;28;20182;-78
2022/01/06 08:58:12;;;;;;;6.33;1.73;;;1.10;99.90;;;;;;5024000;28;20182;-77
2022/01/06 09:00:39;;;;;;;5.00;1.70;;;1.20;99.90;;;;;;5027271;28;20194;-77
2022/01/06 09:03:15;;;;;;;6.73;1.73;;;1.20;99.90;;;;;;5019959;28;20170;-78
2022/01/06 09:05:41;;;;;;;4.40;1.80;;;1.40;99.90;;;;;;5027249;28;20178;-78
2022/01/06 09:08:07;;;;;;;8.30;1.83;;;1.40;99.90;;;;;;5016382;28;20167;-77
2022/01/06 09:10:34;;;;;;;7.40;2.00;;;1.40;99.90;;;;;;5028685;28;20201;-79
2022/01/06 09:13:01;;;;;;;2.73;1.47;;;1.40;99.90;;;;;;5014956;28;20243;-79
2022/01/06 09:15:27;;;;;;;4.27;1.53;;;1.30;99.90;;;;;;5019269;28;20186;-78
2022/01/06 09:17:52;;;;;;;5.40;2.10;;;1.40;99.90;;;;;;5015621;28;20178;-78
2022/01/06 09:20:18;;;;;;;4.37;1.57;;;1.40;99.90;;;;;;5022350;28;20281;-77
2022/01/06 09:22:56;;;;;;;6.63;2.00;;;1.30;99.90;;;;;;5021636;28;20199;-78
2022/01/06 09:25:22;;;;;;;6.53;1.67;;;1.20;99.90;;;;;;5024714;28;20167;-77
2022/01/06 09:27:47;;;;;;;4.50;1.90;;;1.20;99.90;;;;;;5018909;28;20178;-77
2022/01/06 09:30:13;;;;;;;9.43;2.47;;;1.20;99.90;;;;;;5012729;28;20305;-78
2022/01/06 09:32:39;;;;;;;4.77;2.20;;;1.30;99.90;;;;;;5019693;28;20205;-78
2022/01/06 09:35:05;;;;;;;6.13;2.40;;;1.30;99.90;;;;;;5027156;28;20181;-77
2022/01/06 09:37:33;;;;;;;4.50;2.03;;;1.30;99.90;;;;;;5014629;28;20680;-78
2022/01/06 09:39:59;;;;;;;5.27;2.07;;;1.30;99.90;;;;;;5011895;28;20290;-78
2022/01/06 09:42:25;;;;;;;8.07;2.10;;;1.30;99.90;;;;;;5021788;28;20206;-78
2022/01/06 09:44:51;;;;;;;6.17;2.23;;;1.40;99.90;;;;;;5034607;28;20220;-77
2022/01/06 09:47:19;;;;;;;8.17;1.97;;;1.30;99.90;;;;;;5022909;28;20273;-77
2022/01/06 09:49:48;;;;;;;6.73;2.00;;;1.50;99.90;;;;;;5025007;28;20186;-78
2022/01/06 09:52:14;;;;;;;6.50;2.17;;;1.60;99.90;;;;;;5029199;28;20273;-77
2022/01/06 09:54:41;;;;;;;6.97;2.60;;;1.70;99.90;;;;;;5032490;28;20595;-78
2022/01/06 09:57:08;;;;;;;6.70;2.27;;;1.70;99.90;;;;;;5031061;28;20231;-78
2022/01/06 09:59:41;;;;;;;4.87;2.27;;;1.80;99.90;;;;;;5004331;28;20206;-78
2022/01/06 10:02:13;;;;;;;8.63;2.40;;;1.80;99.90;;;;;;5013035;28;20166;-78
2022/01/06 10:04:38;;;;;;;6.30;2.60;;;1.80;99.90;;;;;;5019708;28;20189;-78
2022/01/06 10:07:06;;;;;;;6.77;2.30;;;1.90;99.90;;;;;;5024940;28;20178;-78
2022/01/06 10:09:39;;;;;;;8.43;2.10;;;2.00;99.90;;;;;;5025106;28;20196;-78
2022/01/06 10:12:10;;;;;;;8.37;2.67;;;2.00;99.90;;;;;;5018231;28;20293;-79
2022/01/06 10:14:45;;;;;;;11.90;2.67;;;2.10;99.90;;;;;;5022004;28;20178;-79
2022/01/06 10:17:15;;;;;;;9.37;1.90;;;2.20;99.90;;;;;;5025982;28;20352;-79
2022/01/06 10:19:45;;;;;;;7.00;2.50;;;2.20;99.90;;;;;;5023354;28;20179;-79
2022/01/06 10:22:21;;;;;;;5.37;1.80;;;2.20;99.90;;;;;;5014525;28;20207;-79
2022/01/06 10:24:50;;;;;;;5.97;2.00;;;2.20;99.90;;;;;;5016775;28;20187;-79
2022/01/06 10:27:20;;;;;;;6.87;2.00;;;2.40;99.90;;;;;;5004395;28;20175;-79
2022/01/06 10:29:51;;;;;;;5.03;1.80;;;2.40;99.90;;;;;;5015305;28;20202;-79
2022/01/06 10:32:18;;;;;;;8.73;1.90;;;2.40;99.90;;;;;;5024104;28;20240;-80
2022/01/06 10:34:55;;;;;;;11.53;2.47;;;2.50;99.90;;;;;;5010379;28;20190;-79
2022/01/06 10:37:24;;;;;;;35.00;3.83;;;2.50;99.90;;;;;;5012576;28;20233;-79
2022/01/06 10:40:02;;;;;;;17.70;2.47;;;2.60;99.90;;;;;;5029311;28;20197;-79
2022/01/06 10:42:30;;;;;;;7.57;1.90;;;2.60;99.90;;;;;;5017439;28;21381;-79
2022/01/06 10:45:00;;;;;;;32.63;3.87;;;2.70;99.90;;;;;;5031191;28;20186;-79
2022/01/06 10:47:38;;;;;;;6.23;1.90;;;2.70;99.90;;;;;;5023633;28;20189;-79
2022/01/06 10:50:17;;;;;;;36.20;3.53;;;2.80;99.90;;;;;;5011439;28;20194;-79
2022/01/06 10:52:49;;;;;;;6.40;2.30;;;2.80;99.90;;;;;;5031560;28;20190;-79
2022/01/06 10:55:28;;;;;;;10.37;2.10;;;3.00;99.90;;;;;;5024407;28;20622;-80
2022/01/06 10:57:56;;;;;;;4.13;1.50;;;3.00;99.90;;;;;;5026568;28;20186;-79
2022/01/06 11:00:27;;;;;;;6.00;1.90;;;3.10;99.90;;;;;;5018518;28;20194;-79
2022/01/06 11:03:13;;;;;;;5.97;2.10;;;3.10;99.90;;;;;;5026563;28;20546;-79
2022/01/06 11:05:51;;;;;;;7.23;2.10;;;3.10;99.90;;;;;;5004399;28;21337;-78
2022/01/06 11:08:20;;;;;;;5.87;1.80;;;3.10;99.90;;;;;;5012719;28;20182;-80
2022/01/06 11:11:01;;;;;;;7.20;1.80;;;3.10;99.90;;;;;;5022572;28;20721;-80
2022/01/06 11:13:30;;;;;;;18.40;2.43;;;3.10;99.90;;;;;;5035253;28;20173;-79
2022/01/06 11:15:58;;;;;;;5.13;1.70;;;3.20;99.90;;;;;;5030689;28;20257;-79
2022/01/06 11:18:28;;;;;;;6.87;2.03;;;3.10;99.90;;;;;;5016215;28;20182;-79
2022/01/06 11:21:13;;;;;;;4.50;1.63;;;3.10;99.90;;;;;;5030525;28;20261;-79
2022/01/06 11:23:39;;;;;;;6.13;1.80;;;3.00;99.90;;;;;;5009323;28;20182;-79
2022/01/06 11:26:12;;;;;;;7.20;2.03;;;3.10;99.90;;;;;;5029773;28;20173;-79
2022/01/06 11:28:39;;;;;;;5.33;2.00;;;3.20;99.90;;;;;;5025810;28;20533;-79
2022/01/06 11:31:26;;;;;;;6.03;1.70;;;3.20;99.90;;;;;;5010440;28;20221;-79
2022/01/06 11:33:56;;;;;;;4.50;1.63;;;3.20;99.90;;;;;;5023952;28;20178;-79
2022/01/06 11:36:32;;;;;;;8.57;1.93;;;3.30;99.90;;;;;;5025368;28;20178;-79
2022/01/06 11:39:18;;;;;;;6.30;1.70;;;3.40;99.90;;;;;;5019237;28;20483;-80
2022/01/06 11:41:44;;;;;;;6.80;1.80;;;3.30;99.90;;;;;;5016778;28;20234;-78
2022/01/06 11:44:49;;;;;;;7.63;1.73;;;3.30;99.90;;;;;;5022013;28;20206;-79
2022/01/06 11:47:26;;;;;;;8.97;1.73;;;3.40;99.90;;;;;;5013810;28;20344;-79
2022/01/06 11:50:34;;;;;;;6.00;1.90;;;3.50;99.90;;;;;;5019035;28;20233;-78
2022/01/06 11:53:01;;;;;;;4.03;1.87;;;3.50;99.90;;;;;;4962933;28;20199;-78
2022/01/06 11:55:39;;;;;;;5.67;1.60;;;3.40;99.90;;;;;;5006421;28;20205;-78
2022/01/06 11:58:14;;;;;;;5.93;2.10;;;3.50;99.90;;;;;;5013427;28;20331;-78
2022/01/06 12:00:42;;;;;;;4.67;1.80;;;3.40;99.90;;;;;;4998114;28;20622;-77
2022/01/06 12:03:12;;;;;;;3.70;1.37;;;3.50;99.90;;;;;;5025136;28;20173;-77
2022/01/06 12:05:49;;;;;;;5.37;1.73;;;3.50;99.90;;;;;;5012322;28;20178;-78
2022/01/06 12:08:34;;;;;;;5.70;1.60;;;3.60;99.90;;;;;;5015672;28;20645;-78
2022/01/06 12:10:59;;;;;;;2.93;1.30;;;3.50;99.90;;;;;;5022774;28;20221;-78
2022/01/06 12:13:25;;;;;;;5.90;1.87;;;3.50;99.90;;;;;;5014148;28;20174;-78
2022/01/06 12:15:56;;;;;;;8.13;1.97;;;3.60;99.90;;;;;;5015452;28;20174;-79
2022/01/06 12:18:28;;;;;;;3.67;1.53;;;3.60;99.90;;;;;;5020907;28;20610;-78
2022/01/06 12:20:56;;;;;;;4.87;1.40;;;3.60;99.90;;;;;;5019243;28;20194;-78
2022/01/06 12:23:29;;;;;;;7.00;1.73;;;3.70;99.90;;;;;;5019944;28;20174;-78
2022/01/06 12:34:34;;;;;;;4.13;1.50;;;3.80;99.90;;;;;;5009514;28;20206;-82
2022/01/06 12:37:12;;;;;;;3.13;1.40;;;3.70;99.90;;;;;;4946460;29;20264;-82
2022/01/06 12:39:48;;;;;;;2.40;1.33;;;3.80;99.90;;;;;;4980079;28;20205;-83
2022/01/06 12:42:18;;;;;;;6.03;1.77;;;3.80;99.90;;;;;;5001151;28;20191;-83
2022/01/06 12:44:54;;;;;;;2.40;1.13;;;3.80;99.90;;;;;;4999106;28;20206;-83
2022/01/06 12:47:21;;;;;;;3.17;1.30;;;3.80;99.90;;;;;;4984568;28;20258;-83
2022/01/06 12:49:47;;;;;;;4.07;1.40;;;3.90;99.90;;;;;;4986027;28;20173;-83
2022/01/06 12:52:16;;;;;;;3.17;1.30;;;3.90;99.90;;;;;;4985330;28;20282;-83
2022/01/06 12:55:28;;;;;;;5.50;1.77;;;3.80;99.90;;;;;;4967833;28;20555;-83
2022/01/06 12:58:04;;;;;;;3.20;1.43;;;3.80;99.90;;;;;;4941139;28;20187;-83
2022/01/06 13:01:01;;;;;;;6.47;1.80;;;3.90;99.90;;;;;;4965803;28;20555;-84
2022/01/06 13:03:35;;;;;;;3.17;1.20;;;3.90;99.90;;;;;;4977011;28;20277;-84
2022/01/06 13:06:07;;;;;;;3.77;1.37;;;3.90;99.90;;;;;;4983508;28;20222;-83
2022/01/06 13:08:49;;;;;;;7.57;1.60;;;3.90;99.90;;;;;;4983000;28;20203;-83
2022/01/06 13:11:19;;;;;;;2.80;1.13;;;3.90;99.90;;;;;;4989012;28;20338;-83
2022/01/06 13:13:53;;;;;;;2.53;1.37;;;3.90;99.90;;;;;;4981684;28;20218;-84
2022/01/06 13:16:30;;;;;;;5.30;1.63;;;4.00;99.90;;;;;;5001112;28;20238;-83
2022/01/06 13:19:03;;;;;;;5.97;1.27;;;3.90;99.90;;;;;;4994394;28;21363;-81
2022/01/06 13:21:31;;;;;;;6.27;1.40;;;4.00;99.90;;;;;;5004850;28;20210;-81
2022/01/06 13:24:18;;;;;;;4.83;1.50;;;4.00;99.90;;;;;;4986513;28;20202;-83
2022/01/06 13:26:55;;;;;;;6.23;1.20;;;4.00;99.90;;;;;;4983519;28;20255;-83
2022/01/06 13:29:40;;;;;;;4.10;1.30;;;4.00;99.90;;;;;;5003374;28;20179;-83